Portland, Illinois
Current Conditions -  °F | °C
As of 8:35 AM on Thursday 29 Jan 2015 (Local Time) from KSQI Reporting Station
Overcast Overcast  
Wind Chill: 23°   Ceiling: 1600
Heat Index: 34°   Visibility: 7mi
Dew Point: 28°   Wind: 17mph
Humidity: 81%   Direction: 330°NNW
Pressure: 29.93"   Gusts: 23mph
Location:  41.5909°N, 89.9498°W
Report Text: KSQI 291435Z AUTO 33015G20KT 7SM OVC016 01/M02 A2993 RMK AO1
Loading
Personal Weather Stations






























Interactive Weather Map New forecast layout! Learn more

10-Day Weather Forecast

Advertisements
Track Severe Weather on mobile